Terminal Aerodrome Forecast
Issued by NWS

Home | Current Version | Previous Version | Text Only | Print | Product List | Glossary On
Versions: 1 2 3 4 5 6 7 8 9 10 11 12 13 14 15
000
FTPA31 PHFO 301729
TAFHNY
TAF
PHNY 301729Z 3018/0118 06006KT P6SM SCT025 SCT050
     FM302000 26005KT P6SM BKN025
     FM010100 04014KT P6SM FEW025 SCT035
     FM010500 04010KT P6SM SCT035=

USA.gov is the U.S. government's official web portal to all federal, state and local government web resources and services.